Johnny James — WYT8450 — position and weather

sailwx.info

Track history (hours):
 
Tides and Currents Weather Stations Pressure Air Temp Water Temp Dewpoint Dewpoint Depression Visibility Wind Speed Wind Dir Waves Ship Positions

Johnny James

Owner: CALLAIS & SONS INC, CUT OFF, LA. More information available from US FCC via Universal Licensing System and Coast Guard Vessel Documentation Center.

Last reported at 2015-Feb-12 08:30 UTC. Time now 2015-Mar-02 07:25 UTC.
Position N 29°47' W 092°11'.
Warning: this ship's position is 17 days out of date.

Length 20 m.

Type: Towing. MMSI: 367005220.

Date/timePositionNaut miles runAvg speedWind from/ knotsBaromVisibWave heightAir tempDewpointWater temp
2015-Feb-12 08:30N 29°47' W 092°11'0 0.0
2015-Feb-12 07:33N 29°47' W 092°11'0 0.0
2015-Feb-12 06:33N 29°47' W 092°11'0 0.0
2015-Feb-12 05:33N 29°47' W 092°11'0 0.1
2015-Feb-12 04:33N 29°47' W 092°11'3 2.9
2015-Feb-12 03:25N 29°47' W 092°07'3 3.6
2015-Feb-12 02:32N 29°49' W 092°04'9 4.3
2015-Feb-12 00:30N 29°51' W 091°54'28 3.9
2015-Feb-11 17:24N 29°39' W 091°25'4 4.4
2015-Feb-11 16:33N 29°38' W 091°21'4 4.1
2015-Feb-11 15:33N 29°39' W 091°16'5 4.7
2015-Feb-11 14:33N 29°41' W 091°11'2 2.5
2015-Feb-11 13:34N 29°41' W 091°08'2 2.4
2015-Feb-11 12:34N 29°39' W 091°07'2 2.0
2015-Feb-11 11:34N 29°38' W 091°05'4 3.8
2015-Feb-11 10:33N 29°37' W 091°01'4 3.8
2015-Feb-11 09:34N 29°35' W 090°58'4 4.2
2015-Feb-11 08:33N 29°33' W 090°53'4 4.5
2015-Feb-11 07:33N 29°32' W 090°48'49 2.3
2015-Feb-10 10:29N 29°55' W 089°58'0 0.2
2015-Feb-10 09:31N 29°55' W 089°58'4 4.6
2015-Feb-10 08:33N 29°57' W 090°02'5 5.4
2015-Feb-10 07:33N 29°55' W 090°08'4 0.1
2015-Feb-08 14:22N 29°56' W 090°12'0 0.0
2015-Feb-08 13:33N 29°55' W 090°12'0 0.0
2015-Feb-08 12:32N 29°56' W 090°12'0 0.0
2015-Feb-08 11:32N 29°55' W 090°12'0 0.0
2015-Feb-08 10:28N 29°56' W 090°12'0 0.0
2015-Feb-08 09:33N 29°55' W 090°12'0 0.0
2015-Feb-08 08:24N 29°56' W 090°12'0 0.0
2015-Feb-08 06:13N 29°55' W 090°12'6 0.4
2015-Feb-07 16:16N 29°54' W 090°06'0 0.0
2015-Feb-07 15:33N 29°54' W 090°06'0 0.0
2015-Feb-07 14:31N 29°54' W 090°06'0 0.0
2015-Feb-07 13:28N 29°54' W 090°06'0 0.0
2015-Feb-07 12:27N 29°54' W 090°06'0 0.0
2015-Feb-07 11:32N 29°54' W 090°06'0 0.0
2015-Feb-07 10:29N 29°54' W 090°06'0 0.0
2015-Feb-07 09:27N 29°54' W 090°06'0 0.0
2015-Feb-07 08:33N 29°54' W 090°06'0 0.0
2015-Feb-07 06:33N 29°54' W 090°06'0 0.0
2015-Feb-06 21:21N 29°54' W 090°06'0 0.0
2015-Feb-06 20:26N 29°54' W 090°06'0 0.0
2015-Feb-06 19:25N 29°54' W 090°06'0 0.0
2015-Feb-06 18:33N 29°54' W 090°06'0 0.0
2015-Feb-06 17:33N 29°54' W 090°06'0 0.0
2015-Feb-06 16:32N 29°54' W 090°06'0 0.0
2015-Feb-06 15:26N 29°54' W 090°06'0 0.0
2015-Feb-06 14:25N 29°54' W 090°06'0 0.0
2015-Feb-06 13:29N 29°54' W 090°06'0 0.0
2015-Feb-06 12:24N 29°54' W 090°06'0 0.0
2015-Feb-06 11:33N 29°54' W 090°06'0 0.0
2015-Feb-06 10:33N 29°54' W 090°06'0 0.0
2015-Feb-06 09:32N 29°54' W 090°06'0 0.0
2015-Feb-06 08:33N 29°54' W 090°06'0 0.0
2015-Feb-06 07:33N 29°54' W 090°06'0 0.0
2015-Feb-06 06:28N 29°54' W 090°06'2 0.2
2015-Feb-05 20:20N 29°55' W 090°04'5 1.6
2015-Feb-05 17:26N 29°55' W 089°59'6 1.4
2015-Feb-05 13:14N 29°50' W 090°03'2 3.4
2015-Feb-05 12:33N 29°48' W 090°04'45 3.1
2015-Feb-04 22:05N 29°33' W 090°53'2 4.2
2015-Feb-04 21:33N 29°34' W 090°55'5 4.6
2015-Feb-04 20:33N 29°37' W 090°59'4 4.1
2015-Feb-04 19:33N 29°37' W 091°04'4 3.6
2015-Feb-04 18:33N 29°39' W 091°07'3 3.4
2015-Feb-04 17:33N 29°41' W 091°11'3 3.0
2015-Feb-04 16:33N 29°40' W 091°14'4 3.9
2015-Feb-04 15:33N 29°39' W 091°18'4 3.9
2015-Feb-04 14:33N 29°39' W 091°22'4 3.8
2015-Feb-04 13:31N 29°40' W 091°27'3 3.4
2015-Feb-04 12:33N 29°42' W 091°30'4 4.2
2015-Feb-04 11:32N 29°44' W 091°34'  
Track history (hours):
 
Tides and Currents Weather Stations Pressure Air Temp Water Temp Dewpoint Dewpoint Depression Visibility Wind Speed Wind Dir Waves Ship Positions

Johnny James

Owner: CALLAIS & SONS INC, CUT OFF, LA. More information available from US FCC via Universal Licensing System and Coast Guard Vessel Documentation Center.

Last reported at 2015-Feb-12 08:30 UTC. Time now 2015-Mar-02 07:25 UTC.
Position N 29°47' W 092°11'.
Warning: this ship's position is 17 days out of date.

Length 20 m.

Type: Towing. MMSI: 367005220.

Date/timePositionNaut miles runAvg speedWind from/ knotsBaromVisibWave heightAir tempDewpointWater temp
2015-Feb-12 08:30N 29°47' W 092°11'0 0.0
2015-Feb-12 07:33N 29°47' W 092°11'0 0.0
2015-Feb-12 06:33N 29°47' W 092°11'0 0.0
2015-Feb-12 05:33N 29°47' W 092°11'0 0.1
2015-Feb-12 04:33N 29°47' W 092°11'3 2.9
2015-Feb-12 03:25N 29°47' W 092°07'3 3.6
2015-Feb-12 02:32N 29°49' W 092°04'9 4.3
2015-Feb-12 00:30N 29°51' W 091°54'28 3.9
2015-Feb-11 17:24N 29°39' W 091°25'4 4.4
2015-Feb-11 16:33N 29°38' W 091°21'4 4.1
2015-Feb-11 15:33N 29°39' W 091°16'5 4.7
2015-Feb-11 14:33N 29°41' W 091°11'2 2.5
2015-Feb-11 13:34N 29°41' W 091°08'2 2.4
2015-Feb-11 12:34N 29°39' W 091°07'2 2.0
2015-Feb-11 11:34N 29°38' W 091°05'4 3.8
2015-Feb-11 10:33N 29°37' W 091°01'4 3.8
2015-Feb-11 09:34N 29°35' W 090°58'4 4.2
2015-Feb-11 08:33N 29°33' W 090°53'4 4.5
2015-Feb-11 07:33N 29°32' W 090°48'49 2.3
2015-Feb-10 10:29N 29°55' W 089°58'0 0.2
2015-Feb-10 09:31N 29°55' W 089°58'4 4.6
2015-Feb-10 08:33N 29°57' W 090°02'5 5.4
2015-Feb-10 07:33N 29°55' W 090°08'4 0.1
2015-Feb-08 14:22N 29°56' W 090°12'0 0.0
2015-Feb-08 13:33N 29°55' W 090°12'0 0.0
2015-Feb-08 12:32N 29°56' W 090°12'0 0.0
2015-Feb-08 11:32N 29°55' W 090°12'0 0.0
2015-Feb-08 10:28N 29°56' W 090°12'0 0.0
2015-Feb-08 09:33N 29°55' W 090°12'0 0.0
2015-Feb-08 08:24N 29°56' W 090°12'0 0.0
2015-Feb-08 06:13N 29°55' W 090°12'6 0.4
2015-Feb-07 16:16N 29°54' W 090°06'0 0.0
2015-Feb-07 15:33N 29°54' W 090°06'0 0.0
2015-Feb-07 14:31N 29°54' W 090°06'0 0.0
2015-Feb-07 13:28N 29°54' W 090°06'0 0.0
2015-Feb-07 12:27N 29°54' W 090°06'0 0.0
2015-Feb-07 11:32N 29°54' W 090°06'0 0.0
2015-Feb-07 10:29N 29°54' W 090°06'0 0.0
2015-Feb-07 09:27N 29°54' W 090°06'0 0.0
2015-Feb-07 08:33N 29°54' W 090°06'0 0.0
2015-Feb-07 06:33N 29°54' W 090°06'0 0.0
2015-Feb-06 21:21N 29°54' W 090°06'0 0.0
2015-Feb-06 20:26N 29°54' W 090°06'0 0.0
2015-Feb-06 19:25N 29°54' W 090°06'0 0.0
2015-Feb-06 18:33N 29°54' W 090°06'0 0.0
2015-Feb-06 17:33N 29°54' W 090°06'0 0.0
2015-Feb-06 16:32N 29°54' W 090°06'0 0.0
2015-Feb-06 15:26N 29°54' W 090°06'0 0.0
2015-Feb-06 14:25N 29°54' W 090°06'0 0.0
2015-Feb-06 13:29N 29°54' W 090°06'0 0.0
2015-Feb-06 12:24N 29°54' W 090°06'0 0.0
2015-Feb-06 11:33N 29°54' W 090°06'0 0.0
2015-Feb-06 10:33N 29°54' W 090°06'0 0.0
2015-Feb-06 09:32N 29°54' W 090°06'0 0.0
2015-Feb-06 08:33N 29°54' W 090°06'0 0.0
2015-Feb-06 07:33N 29°54' W 090°06'0 0.0
2015-Feb-06 06:28N 29°54' W 090°06'2 0.2
2015-Feb-05 20:20N 29°55' W 090°04'5 1.6
2015-Feb-05 17:26N 29°55' W 089°59'6 1.4
2015-Feb-05 13:14N 29°50' W 090°03'2 3.4
2015-Feb-05 12:33N 29°48' W 090°04'45 3.1
2015-Feb-04 22:05N 29°33' W 090°53'2 4.2
2015-Feb-04 21:33N 29°34' W 090°55'5 4.6
2015-Feb-04 20:33N 29°37' W 090°59'4 4.1
2015-Feb-04 19:33N 29°37' W 091°04'4 3.6
2015-Feb-04 18:33N 29°39' W 091°07'3 3.4
2015-Feb-04 17:33N 29°41' W 091°11'3 3.0
2015-Feb-04 16:33N 29°40' W 091°14'4 3.9
2015-Feb-04 15:33N 29°39' W 091°18'4 3.9
2015-Feb-04 14:33N 29°39' W 091°22'4 3.8
2015-Feb-04 13:31N 29°40' W 091°27'3 3.4
2015-Feb-04 12:33N 29°42' W 091°30'4 4.2
2015-Feb-04 11:32N 29°44' W 091°34'  

Dump ship's entire track history